Mentions légales

Ce site est édité par :


Association Club Aérien Lille Métropole


Route de l’Aéroport


Zone aviation de loisirs


59810 Lesquin


Tél. : 03 20 60 18 54


Email : info@calm.club

Directeur de la publication :

Jacques Flotat

Hébergeur :


OVH


2 Rue Kellermann


59100 Roubaix

 

La météo actuelle sur la plateforme de Lesquin LFQQ

TAF LFQQ
LFQQ 062300Z 0700/0806 28011KT 9999 NSW SCT030 BECMG 0703/0706 22005KT BECMG 0710/0713 16012KT OVC007 BECMG 0713/0715 16017G27KT OVC013 BECMG 0716/0719 16027G37KT 4000 RA BKN007 OVC013 BECMG 0721/0723 20015G25KT 9999 NSW SCT015

Venir nous rencontrer

Route de l’Aéroport

59810 Lesquin

 

Téléphone : 03 20 60 18 54

Du mardi au samedi de 10h30 à 12h30

et de 13h à 18h.

Suivre notre actualité